createdAt,value
2019-01-12T00:00:45.255Z,9.53
2019-01-12T00:03:14.657Z,9.17
2019-01-12T00:05:44.541Z,9.10
2019-01-12T00:08:13.927Z,9.20
2019-01-12T00:10:43.425Z,9.23
2019-01-12T00:13:12.917Z,9.53
2019-01-12T00:15:42.462Z,9.80
2019-01-12T00:18:11.901Z,10.00
2019-01-12T00:20:41.390Z,9.63
2019-01-12T00:23:10.809Z,10.80
2019-01-12T00:25:40.275Z,9.23
2019-01-12T00:28:09.677Z,9.97
2019-01-12T00:30:39.149Z,10.07
2019-01-12T00:33:08.528Z,10.30
2019-01-12T00:35:38.011Z,10.97
2019-01-12T00:38:07.393Z,10.20
2019-01-12T00:40:36.868Z,10.17
2019-01-12T00:43:06.350Z,9.27
2019-01-12T00:45:36.068Z,10.23
2019-01-12T00:48:05.738Z,10.63
2019-01-12T00:50:35.334Z,10.47
2019-01-12T00:53:04.945Z,11.80
2019-01-12T00:55:34.394Z,10.63
2019-01-12T00:58:03.884Z,10.43
2019-01-12T01:00:33.684Z,10.93
2019-01-12T01:03:03.244Z,12.10
2019-01-12T01:05:33.084Z,11.77
2019-01-12T01:08:02.656Z,12.27
2019-01-12T01:10:32.087Z,11.40
2019-01-12T01:13:01.456Z,13.43
2019-01-12T01:15:31.112Z,12.90
2019-01-12T01:18:00.688Z,12.37
2019-01-12T01:20:30.178Z,13.03
2019-01-12T01:22:59.695Z,12.97
2019-01-12T01:25:29.226Z,13.10
2019-01-12T01:27:59.536Z,13.70
2019-01-12T01:30:29.015Z,12.80
2019-01-12T01:32:58.444Z,14.43
2019-01-12T01:35:27.941Z,14.77
2019-01-12T01:37:59.147Z,14.90
2019-01-12T01:40:28.573Z,15.10
2019-01-12T01:42:58.034Z,15.17
2019-01-12T01:45:27.440Z,14.73
2019-01-12T01:47:57.236Z,14.83
2019-01-12T01:50:26.760Z,15.60
2019-01-12T01:52:56.168Z,15.90
2019-01-12T01:55:25.718Z,13.87
2019-01-12T01:57:55.137Z,14.50
2019-01-12T02:00:25.350Z,14.70
2019-01-12T02:02:54.880Z,12.93
2019-01-12T02:05:24.285Z,13.33
2019-01-12T02:07:53.734Z,12.60
2019-01-12T02:10:23.205Z,13.27
2019-01-12T02:12:52.632Z,13.43
2019-01-12T02:15:22.783Z,13.47
2019-01-12T02:17:52.652Z,13.33
2019-01-12T02:20:23.152Z,13.33
2019-01-12T02:22:52.758Z,13.80
2019-01-12T02:25:22.274Z,13.47
2019-01-12T02:27:52.128Z,14.20
2019-01-12T02:30:22.728Z,14.97
2019-01-12T02:32:52.818Z,14.30
2019-01-12T02:35:22.292Z,16.37
2019-01-12T02:37:51.727Z,16.90
2019-01-12T02:40:21.265Z,16.10
2019-01-12T02:42:50.824Z,15.67
2019-01-12T02:45:20.621Z,16.20
2019-01-12T02:47:50.583Z,16.17
2019-01-12T02:50:19.988Z,16.83
2019-01-12T02:52:49.868Z,18.33
2019-01-12T02:55:19.298Z,16.80
2019-01-12T02:57:48.863Z,16.97
2019-01-12T03:00:18.750Z,16.70
2019-01-12T03:02:48.295Z,17.50
2019-01-12T03:05:17.672Z,18.23
2019-01-12T03:07:47.229Z,19.83
2019-01-12T03:10:16.762Z,19.83
2019-01-12T03:12:46.443Z,21.17
2019-01-12T03:15:16.804Z,21.47
2019-01-12T03:17:46.453Z,22.13
2019-01-12T03:20:16.578Z,21.77
2019-01-12T03:22:46.033Z,23.53
2019-01-12T03:25:18.407Z,22.23
2019-01-12T03:27:46.565Z,24.00
2019-01-12T03:30:16.937Z,25.33
2019-01-12T03:32:46.496Z,26.40
2019-01-12T03:35:16.142Z,24.70
2019-01-12T03:37:45.654Z,25.70
2019-01-12T03:40:16.920Z,27.37
2019-01-12T03:42:46.275Z,26.77
2019-01-12T03:45:17.942Z,26.87
2019-01-12T03:47:49.540Z,26.70
2019-01-12T03:50:19.109Z,28.23
2019-01-12T03:52:48.834Z,27.57
2019-01-12T03:55:25.591Z,28.17
2019-01-12T03:57:51.275Z,28.67
2019-01-12T04:00:21.723Z,26.67
2019-01-12T04:02:51.296Z,28.40
2019-01-12T04:05:21.110Z,27.77
2019-01-12T04:07:50.671Z,28.80
2019-01-12T04:10:20.347Z,29.63
2019-01-12T04:12:49.860Z,30.10
2019-01-12T04:15:19.587Z,31.37
2019-01-12T04:17:49.111Z,32.30
2019-01-12T04:20:18.893Z,32.57
2019-01-12T04:22:48.357Z,33.90
2019-01-12T04:25:17.838Z,34.13
2019-01-12T04:27:47.263Z,34.30
2019-01-12T04:30:17.230Z,35.77
2019-01-12T04:32:46.731Z,38.67
2019-01-12T04:35:16.239Z,39.30
2019-01-12T04:37:45.851Z,38.60
2019-01-12T04:40:17.062Z,42.03
2019-01-12T04:42:46.618Z,42.83
2019-01-12T04:45:16.156Z,44.40
2019-01-12T04:47:45.614Z,46.33
2019-01-12T04:50:15.759Z,47.47
2019-01-12T04:52:45.317Z,48.87
2019-01-12T04:55:14.913Z,47.63
2019-01-12T04:57:44.427Z,49.90
2019-01-12T05:00:16.156Z,52.30
2019-01-12T05:02:45.651Z,51.80
2019-01-12T05:05:15.450Z,51.47
2019-01-12T05:07:44.927Z,52.27
2019-01-12T05:10:14.846Z,51.60
2019-01-12T05:12:44.539Z,53.13
2019-01-12T05:15:14.981Z,53.13
2019-01-12T05:17:44.449Z,53.67
2019-01-12T05:20:16.481Z,51.97
2019-01-12T05:22:46.326Z,52.73
2019-01-12T05:25:15.825Z,49.53
2019-01-12T05:27:45.221Z,49.87
2019-01-12T05:30:17.542Z,49.40
2019-01-12T05:32:46.912Z,49.03
2019-01-12T05:35:16.547Z,47.87
2019-01-12T05:37:46.014Z,48.07
2019-01-12T05:40:15.472Z,46.77
2019-01-12T05:42:45.209Z,48.80
2019-01-12T05:45:14.754Z,48.73
2019-01-12T05:47:44.315Z,44.80
2019-01-12T05:50:14.121Z,44.73
2019-01-12T05:52:43.673Z,45.10
2019-01-12T05:55:13.209Z,43.60
2019-01-12T05:57:42.783Z,42.23
2019-01-12T06:00:18.245Z,40.60
2019-01-12T06:02:47.693Z,40.33
2019-01-12T06:05:17.337Z,37.33
2019-01-12T06:07:46.794Z,40.93
2019-01-12T06:10:16.449Z,39.13
2019-01-12T06:12:45.857Z,38.70
2019-01-12T06:15:15.863Z,37.13
2019-01-12T06:17:45.570Z,36.83
2019-01-12T06:20:15.775Z,38.03
2019-01-12T06:22:45.267Z,41.10
2019-01-12T06:25:14.642Z,40.00
2019-01-12T06:27:44.151Z,40.03
2019-01-12T06:30:15.975Z,41.13
2019-01-12T06:32:45.451Z,40.33
2019-01-12T06:35:15.138Z,38.77
2019-01-12T06:37:44.877Z,39.00
2019-01-12T06:40:16.152Z,39.07
2019-01-12T06:42:45.578Z,36.97
2019-01-12T06:45:18.141Z,39.23
2019-01-12T06:47:47.659Z,39.43
2019-01-12T06:50:18.853Z,39.30
2019-01-12T06:52:48.313Z,38.47
2019-01-12T06:55:17.814Z,37.80
2019-01-12T06:57:47.216Z,37.90
2019-01-12T07:00:18.703Z,36.50
2019-01-12T07:02:48.299Z,36.87
2019-01-12T07:05:17.815Z,36.60
2019-01-12T07:07:47.311Z,34.13
2019-01-12T07:10:16.707Z,32.80
2019-01-12T07:12:46.305Z,36.07
2019-01-12T07:15:15.877Z,33.10
2019-01-12T07:17:45.370Z,32.53
2019-01-12T07:20:16.579Z,33.53
2019-01-12T07:22:46.421Z,30.90
2019-01-12T07:25:15.895Z,30.70
2019-01-12T07:27:45.376Z,30.57
2019-01-12T07:30:20.248Z,31.27
2019-01-12T07:32:49.801Z,29.53
2019-01-12T07:35:19.209Z,30.73
2019-01-12T07:37:48.731Z,33.17
2019-01-12T07:40:18.197Z,32.30
2019-01-12T07:42:48.344Z,32.63
2019-01-12T07:45:17.891Z,33.23
2019-01-12T07:47:47.405Z,33.00
2019-01-12T07:50:17.247Z,31.30
2019-01-12T07:52:46.819Z,31.43
2019-01-12T07:55:16.475Z,31.27
2019-01-12T07:57:45.980Z,31.90
2019-01-12T08:00:18.101Z,31.80
2019-01-12T08:02:47.666Z,31.67
2019-01-12T08:05:17.359Z,31.97
2019-01-12T08:07:46.825Z,32.10
2019-01-12T08:10:20.309Z,30.20
2019-01-12T08:12:49.853Z,31.57
2019-01-12T08:15:19.517Z,31.50
2019-01-12T08:17:50.217Z,31.27
2019-01-12T08:20:20.183Z,31.73
2019-01-12T08:22:49.646Z,30.40
2019-01-12T08:25:19.171Z,30.40
2019-01-12T08:27:48.670Z,31.07
2019-01-12T08:30:18.285Z,29.77
2019-01-12T08:32:47.700Z,29.67
2019-01-12T08:35:17.371Z,29.83
2019-01-12T08:37:46.873Z,30.27
2019-01-12T08:40:16.342Z,29.57
2019-01-12T08:42:45.886Z,29.57
2019-01-12T08:45:15.475Z,30.13
2019-01-12T08:47:44.999Z,29.53
2019-01-12T08:50:16.888Z,28.53
2019-01-12T08:52:48.812Z,27.73
2019-01-12T08:55:18.226Z,27.33
2019-01-12T08:57:47.766Z,26.50
2019-01-12T09:00:20.613Z,27.13
2019-01-12T09:02:50.169Z,28.10
2019-01-12T09:05:19.825Z,27.30
2019-01-12T09:07:49.310Z,28.00
2019-01-12T09:10:19.780Z,25.77
2019-01-12T09:12:49.553Z,27.53
2019-01-12T09:15:19.287Z,25.93
2019-01-12T09:17:48.808Z,26.20
2019-01-12T09:20:18.390Z,24.63
2019-01-12T09:22:47.952Z,24.47
2019-01-12T09:25:17.399Z,24.30
2019-01-12T09:27:46.888Z,23.77
2019-01-12T09:30:18.917Z,22.90
2019-01-12T09:32:48.943Z,22.70
2019-01-12T09:35:18.915Z,21.43
2019-01-12T09:37:48.479Z,22.07
2019-01-12T09:40:18.946Z,21.83
2019-01-12T09:42:50.232Z,22.07
2019-01-12T09:45:19.806Z,20.80
2019-01-12T09:47:49.449Z,21.07
2019-01-12T09:50:19.840Z,19.90
2019-01-12T09:52:49.955Z,19.40
2019-01-12T09:55:19.430Z,18.33
2019-01-12T09:57:48.984Z,19.33
2019-01-12T10:00:20.705Z,17.37
2019-01-12T10:02:50.273Z,18.03
2019-01-12T10:05:19.805Z,18.13
2019-01-12T10:07:49.298Z,16.43
2019-01-12T10:10:20.184Z,17.33
2019-01-12T10:12:49.876Z,14.83
2019-01-12T10:15:19.414Z,16.10
2019-01-12T10:17:48.865Z,15.27
2019-01-12T10:20:19.241Z,14.70
2019-01-12T10:22:48.859Z,14.13
2019-01-12T10:25:18.468Z,14.70
2019-01-12T10:27:48.859Z,15.00
2019-01-12T10:30:23.113Z,14.33
2019-01-12T10:32:52.658Z,13.43
2019-01-12T10:35:22.527Z,13.53
2019-01-12T10:37:52.119Z,13.10
2019-01-12T10:40:21.783Z,12.90
2019-01-12T10:42:51.773Z,12.90
2019-01-12T10:45:22.443Z,13.30
2019-01-12T10:47:52.413Z,13.63
2019-01-12T10:50:30.537Z,12.80
2019-01-12T10:53:00.205Z,13.40
2019-01-12T10:55:29.594Z,13.10
2019-01-12T10:57:59.079Z,12.80
2019-01-12T11:00:33.503Z,11.97
2019-01-12T11:03:03.118Z,12.03
2019-01-12T11:05:32.658Z,11.07
2019-01-12T11:08:02.128Z,11.27
2019-01-12T11:10:31.680Z,11.57
2019-01-12T11:13:02.912Z,12.20
2019-01-12T11:15:32.303Z,11.23
2019-01-12T11:18:01.845Z,11.53
2019-01-12T11:20:31.675Z,11.70
2019-01-12T11:23:01.213Z,12.10
2019-01-12T11:25:30.755Z,12.37
2019-01-12T11:28:00.113Z,11.63
2019-01-12T11:30:29.617Z,11.83
2019-01-12T11:32:59.085Z,12.47
2019-01-12T11:35:28.861Z,12.73
2019-01-12T11:37:58.380Z,12.20
2019-01-12T11:40:27.824Z,12.60
2019-01-12T11:42:57.276Z,12.93
2019-01-12T11:45:26.762Z,13.53
2019-01-12T11:47:56.212Z,13.70
2019-01-12T11:50:25.748Z,12.87
2019-01-12T11:52:55.149Z,12.73
2019-01-12T11:55:24.559Z,13.37
2019-01-12T11:57:53.958Z,14.13
2019-01-12T12:00:25.602Z,13.67
2019-01-12T12:02:55.539Z,15.30
2019-01-12T12:05:25.680Z,14.47
2019-01-12T12:07:55.560Z,14.90
2019-01-12T12:10:25.233Z,14.77
2019-01-12T12:12:54.764Z,15.37
2019-01-12T12:15:24.562Z,16.33
2019-01-12T12:17:54.143Z,16.10
2019-01-12T12:20:25.182Z,15.03
2019-01-12T12:22:54.964Z,17.97
2019-01-12T12:25:24.352Z,16.20
2019-01-12T12:27:53.816Z,16.67
2019-01-12T12:30:25.733Z,16.57
2019-01-12T12:32:55.239Z,15.90
2019-01-12T12:35:24.838Z,15.87
2019-01-12T12:37:54.473Z,16.93
2019-01-12T12:40:24.502Z,16.30
2019-01-12T12:42:55.340Z,17.03
2019-01-12T12:45:27.364Z,16.60
2019-01-12T12:47:56.808Z,15.60
2019-01-12T12:50:26.213Z,15.57
2019-01-12T12:52:56.050Z,15.67
2019-01-12T12:55:25.604Z,14.77
2019-01-12T12:57:55.142Z,15.40
2019-01-12T13:00:27.205Z,17.10
2019-01-12T13:02:56.767Z,15.80
2019-01-12T13:05:26.714Z,16.07
2019-01-12T13:07:56.164Z,14.50
2019-01-12T13:10:28.290Z,15.67
2019-01-12T13:12:58.460Z,16.27
2019-01-12T13:15:27.932Z,15.43
2019-01-12T13:17:57.428Z,16.20
2019-01-12T13:20:27.043Z,15.80
2019-01-12T13:22:56.576Z,17.97
2019-01-12T13:25:25.974Z,16.37
2019-01-12T13:27:55.393Z,17.87
2019-01-12T13:30:25.644Z,17.00
2019-01-12T13:32:55.173Z,17.93
2019-01-12T13:35:24.823Z,16.60
2019-01-12T13:37:54.337Z,17.00
2019-01-12T13:40:25.572Z,16.83
2019-01-12T13:42:55.082Z,18.03
2019-01-12T13:45:24.647Z,17.60
2019-01-12T13:47:54.956Z,18.20
2019-01-12T13:50:25.160Z,18.50
2019-01-12T13:52:54.648Z,18.40
2019-01-12T13:55:24.265Z,17.47
2019-01-12T13:57:54.034Z,18.47
2019-01-12T14:00:26.530Z,18.40
2019-01-12T14:02:56.086Z,18.33
2019-01-12T14:05:25.663Z,18.33
2019-01-12T14:07:56.416Z,17.90
2019-01-12T14:10:26.416Z,18.97
2019-01-12T14:12:56.066Z,18.10
2019-01-12T14:15:26.084Z,19.90
2019-01-12T14:17:55.766Z,19.40
2019-01-12T14:20:30.614Z,19.80
2019-01-12T14:23:00.165Z,19.10
2019-01-12T14:25:29.750Z,22.03
2019-01-12T14:27:59.228Z,20.03
2019-01-12T14:30:28.680Z,20.80
2019-01-12T14:32:58.266Z,19.83
2019-01-12T14:35:27.722Z,20.93
2019-01-12T14:37:57.280Z,20.67
2019-01-12T14:40:26.678Z,20.50
2019-01-12T14:42:56.092Z,20.40
2019-01-12T14:45:30.006Z,20.03
2019-01-12T14:47:59.539Z,21.00
2019-01-12T14:50:29.048Z,20.53
2019-01-12T14:52:58.530Z,19.70
2019-01-12T14:55:27.991Z,20.63
2019-01-12T14:58:02.590Z,18.57
2019-01-12T15:00:30.335Z,19.23
2019-01-12T15:02:59.744Z,19.57
2019-01-12T15:05:29.724Z,18.30
2019-01-12T15:08:00.264Z,19.50
2019-01-12T15:10:29.770Z,18.57
2019-01-12T15:12:59.340Z,17.80
2019-01-12T15:15:28.938Z,17.37
2019-01-12T15:17:58.429Z,18.10
2019-01-12T15:20:28.582Z,17.87
2019-01-12T15:22:58.137Z,18.40
2019-01-12T15:25:27.681Z,16.63
2019-01-12T15:27:57.182Z,18.57
2019-01-12T15:30:28.466Z,18.67
2019-01-12T15:32:58.386Z,21.13
2019-01-12T15:35:29.960Z,19.00
2019-01-12T15:37:59.448Z,19.47
2019-01-12T15:40:28.916Z,19.07
2019-01-12T15:42:58.482Z,18.80
2019-01-12T15:45:27.884Z,19.30
2019-01-12T15:47:57.408Z,18.60
2019-01-12T15:50:27.596Z,18.83
2019-01-12T15:52:57.193Z,18.33
2019-01-12T15:55:26.720Z,18.80
2019-01-12T15:57:56.263Z,18.37
2019-01-12T16:00:28.243Z,20.03
2019-01-12T16:02:57.925Z,19.17
2019-01-12T16:05:27.449Z,18.50
2019-01-12T16:07:57.132Z,17.10
2019-01-12T16:10:26.558Z,16.37
2019-01-12T16:12:57.693Z,16.30
2019-01-12T16:15:27.482Z,16.97
2019-01-12T16:17:57.394Z,16.80
2019-01-12T16:20:29.412Z,16.40
2019-01-12T16:22:58.891Z,15.20
2019-01-12T16:25:28.360Z,15.27
2019-01-12T16:27:57.871Z,16.30
2019-01-12T16:30:28.353Z,15.80
2019-01-12T16:32:57.907Z,15.00
2019-01-12T16:35:27.731Z,16.00
2019-01-12T16:37:57.178Z,15.33
2019-01-12T16:40:27.389Z,14.90
2019-01-12T16:42:56.926Z,14.93
2019-01-12T16:45:26.398Z,14.30
2019-01-12T16:47:55.857Z,15.00
2019-01-12T16:50:25.252Z,13.80
2019-01-12T16:52:54.753Z,13.37
2019-01-12T16:55:24.220Z,15.13
2019-01-12T16:57:53.657Z,14.70
2019-01-12T17:00:25.433Z,15.90
2019-01-12T17:02:55.011Z,14.47
2019-01-12T17:05:24.549Z,13.83
2019-01-12T17:07:54.098Z,13.53
2019-01-12T17:10:23.591Z,15.33
2019-01-12T17:12:53.057Z,14.87
2019-01-12T17:15:23.018Z,15.80
2019-01-12T17:17:52.415Z,16.47
2019-01-12T17:20:23.961Z,15.83
2019-01-12T17:22:55.788Z,15.70
2019-01-12T17:25:26.758Z,16.17
2019-01-12T17:27:56.321Z,16.13
2019-01-12T17:30:26.266Z,14.93
2019-01-12T17:32:55.713Z,14.77
2019-01-12T17:35:25.123Z,16.20
2019-01-12T17:37:54.557Z,16.57
2019-01-12T17:40:24.001Z,15.47
2019-01-12T17:42:53.362Z,16.03
2019-01-12T17:45:24.433Z,14.70
2019-01-12T17:47:53.913Z,15.30
2019-01-12T17:50:24.531Z,15.90
2019-01-12T17:52:54.616Z,15.17
2019-01-12T17:55:24.954Z,17.33
2019-01-12T17:57:54.437Z,17.13
2019-01-12T18:00:31.021Z,18.37
2019-01-12T18:03:00.507Z,17.37
2019-01-12T18:05:30.136Z,16.60
2019-01-12T18:08:00.558Z,16.67
2019-01-12T18:10:29.915Z,16.50
2019-01-12T18:12:59.313Z,16.90
2019-01-12T18:15:28.884Z,18.13
2019-01-12T18:17:58.433Z,16.03
2019-01-12T18:20:27.862Z,15.70
2019-01-12T18:22:57.247Z,16.23
2019-01-12T18:25:26.747Z,15.90
2019-01-12T18:27:56.206Z,15.20
2019-01-12T18:30:25.851Z,14.80
2019-01-12T18:32:56.227Z,15.30
2019-01-12T18:35:25.769Z,14.73
2019-01-12T18:37:55.216Z,15.77
2019-01-12T18:40:24.714Z,14.73
2019-01-12T18:42:54.323Z,16.33
2019-01-12T18:45:24.276Z,14.90
2019-01-12T18:47:53.718Z,14.47
2019-01-12T18:50:25.175Z,14.83
2019-01-12T18:52:54.907Z,14.93
2019-01-12T18:55:24.614Z,15.03
2019-01-12T18:57:54.061Z,14.90
2019-01-12T19:00:26.167Z,14.53
2019-01-12T19:02:55.814Z,15.13
2019-01-12T19:05:25.621Z,14.30
2019-01-12T19:07:55.345Z,14.93
2019-01-12T19:10:24.899Z,13.50
2019-01-12T19:12:54.455Z,13.50
2019-01-12T19:15:28.585Z,14.30
2019-01-12T19:17:58.161Z,14.40
2019-01-12T19:20:27.667Z,14.13
2019-01-12T19:22:57.273Z,14.83
2019-01-12T19:25:26.666Z,15.27
2019-01-12T19:27:57.345Z,14.73
2019-01-12T19:30:26.814Z,14.50
2019-01-12T19:32:56.203Z,13.90
2019-01-12T19:35:25.737Z,14.30
2019-01-12T19:37:55.165Z,14.90
2019-01-12T19:40:24.657Z,13.30
2019-01-12T19:42:54.252Z,13.87
2019-01-12T19:45:23.771Z,12.47
2019-01-12T19:47:53.217Z,13.37
2019-01-12T19:50:23.889Z,11.87
2019-01-12T19:52:53.334Z,13.80
2019-01-12T19:55:22.901Z,14.27
2019-01-12T19:57:52.292Z,12.37
2019-01-12T20:00:24.259Z,12.80
2019-01-12T20:02:53.725Z,13.40
2019-01-12T20:05:23.343Z,11.93
2019-01-12T20:07:52.825Z,13.60
2019-01-12T20:10:22.285Z,13.23
2019-01-12T20:12:53.445Z,13.17
2019-01-12T20:15:24.383Z,13.83
2019-01-12T20:17:53.844Z,16.17
2019-01-12T20:20:23.314Z,15.37
2019-01-12T20:22:52.835Z,15.40
2019-01-12T20:25:27.305Z,12.17
2019-01-12T20:27:56.938Z,12.90
2019-01-12T20:30:32.587Z,13.10
2019-01-12T20:33:16.957Z,11.80
2019-01-12T20:36:08.604Z,11.23
2019-01-12T20:38:49.798Z,10.60
2019-01-12T20:41:36.996Z,9.80
2019-01-12T20:44:12.158Z,10.60
2019-01-12T20:47:02.586Z,11.47
2019-01-12T20:49:35.566Z,10.13
2019-01-12T20:52:34.673Z,11.93
2019-01-12T20:55:09.921Z,9.87
2019-01-12T20:57:44.937Z,9.40
2019-01-12T21:00:29.161Z,9.47
2019-01-12T21:03:16.585Z,9.57
2019-01-12T21:06:06.789Z,13.97
2019-01-12T21:08:53.883Z,13.50
2019-01-12T21:11:54.729Z,11.83
2019-01-12T21:14:32.595Z,11.43
2019-01-12T21:17:02.149Z,11.57
2019-01-12T21:19:31.633Z,12.43
2019-01-12T21:22:01.152Z,11.63
2019-01-12T21:24:30.646Z,10.87
2019-01-12T21:27:00.013Z,10.87
2019-01-12T21:29:35.146Z,10.67
2019-01-12T21:32:00.753Z,11.07
2019-01-12T21:34:30.197Z,11.17
2019-01-12T21:36:59.647Z,12.07
2019-01-12T21:39:29.049Z,13.53
2019-01-12T21:41:58.641Z,12.93
2019-01-12T21:44:28.123Z,12.67
2019-01-12T21:46:57.589Z,11.30
2019-01-12T21:49:27.235Z,11.53
2019-01-12T21:51:56.610Z,11.13
2019-01-12T21:54:26.528Z,11.17
2019-01-12T21:56:56.013Z,10.80
2019-01-12T21:59:25.423Z,11.27
2019-01-12T22:01:55.079Z,12.30
2019-01-12T22:04:25.532Z,11.60
2019-01-12T22:06:54.938Z,10.90
2019-01-12T22:09:24.341Z,11.03
2019-01-12T22:11:53.831Z,10.57
2019-01-12T22:14:23.281Z,12.07
2019-01-12T22:16:52.771Z,9.63
2019-01-12T22:19:22.938Z,10.33
2019-01-12T22:21:52.485Z,10.57
2019-01-12T22:24:22.062Z,9.83
2019-01-12T22:26:51.960Z,9.53
2019-01-12T22:29:23.144Z,9.80
2019-01-12T22:31:52.684Z,9.50
2019-01-12T22:34:22.165Z,9.63
2019-01-12T22:36:53.375Z,10.10
2019-01-12T22:39:22.832Z,10.30
2019-01-12T22:41:52.305Z,9.47
2019-01-12T22:44:21.807Z,10.17
2019-01-12T22:46:51.322Z,9.00
2019-01-12T22:49:20.790Z,10.17
2019-01-12T22:51:50.361Z,9.43
2019-01-12T22:54:19.840Z,10.17
2019-01-12T22:56:49.295Z,10.77
2019-01-12T22:59:18.720Z,10.33
2019-01-12T23:01:48.647Z,11.07
2019-01-12T23:04:18.227Z,10.83
2019-01-12T23:06:47.710Z,11.93
2019-01-12T23:09:17.254Z,10.63
2019-01-12T23:11:46.762Z,10.83
2019-01-12T23:14:16.202Z,11.93
2019-01-12T23:16:45.761Z,11.90
2019-01-12T23:19:15.486Z,11.50
2019-01-12T23:21:46.713Z,11.87
2019-01-12T23:24:16.201Z,12.70
2019-01-12T23:26:45.704Z,12.87
2019-01-12T23:29:15.348Z,13.07
2019-01-12T23:31:45.083Z,13.40
2019-01-12T23:34:14.739Z,13.03
2019-01-12T23:36:44.848Z,12.83
2019-01-12T23:39:14.362Z,13.77
2019-01-12T23:41:43.821Z,14.47
2019-01-12T23:44:14.925Z,14.53
2019-01-12T23:46:44.386Z,14.90
2019-01-12T23:49:13.823Z,16.17
2019-01-12T23:51:43.214Z,15.03
2019-01-12T23:54:12.654Z,15.43
2019-01-12T23:56:42.164Z,16.17
2019-01-12T23:59:11.632Z,17.27
